sensor_id;sensor_type;location;lat;lon;timestamp;P1;durP1;ratioP1;P2;durP2;ratioP2
10381;SDS011;11635;53.636;10.120;2023-02-28T00:00:07;7.43;;;3.65;;
10381;SDS011;11635;53.636;10.120;2023-02-28T00:02:35;5.00;;;3.42;;
10381;SDS011;11635;53.636;10.120;2023-02-28T00:05:02;7.30;;;3.92;;
10381;SDS011;11635;53.636;10.120;2023-02-28T00:07:28;5.80;;;3.55;;
10381;SDS011;11635;53.636;10.120;2023-02-28T00:09:56;6.18;;;3.95;;
10381;SDS011;11635;53.636;10.120;2023-02-28T00:12:23;3.15;;;2.85;;
10381;SDS011;11635;53.636;10.120;2023-02-28T00:14:49;6.32;;;3.60;;
10381;SDS011;11635;53.636;10.120;2023-02-28T00:17:16;5.93;;;3.90;;
10381;SDS011;11635;53.636;10.120;2023-02-28T00:19:46;6.15;;;3.58;;
10381;SDS011;11635;53.636;10.120;2023-02-28T00:22:12;6.45;;;4.28;;
10381;SDS011;11635;53.636;10.120;2023-02-28T00:24:39;8.95;;;4.32;;
10381;SDS011;11635;53.636;10.120;2023-02-28T00:27:06;8.95;;;3.58;;
10381;SDS011;11635;53.636;10.120;2023-02-28T00:29:33;6.30;;;3.55;;
10381;SDS011;11635;53.636;10.120;2023-02-28T00:31:59;5.32;;;4.20;;
10381;SDS011;11635;53.636;10.120;2023-02-28T00:34:25;6.65;;;3.75;;
10381;SDS011;11635;53.636;10.120;2023-02-28T00:36:52;6.70;;;3.83;;
10381;SDS011;11635;53.636;10.120;2023-02-28T00:39:18;5.72;;;3.72;;
10381;SDS011;11635;53.636;10.120;2023-02-28T00:41:44;6.18;;;4.03;;
10381;SDS011;11635;53.636;10.120;2023-02-28T00:44:12;5.43;;;4.10;;
10381;SDS011;11635;53.636;10.120;2023-02-28T00:46:38;6.53;;;3.83;;
10381;SDS011;11635;53.636;10.120;2023-02-28T00:49:05;8.65;;;4.68;;
10381;SDS011;11635;53.636;10.120;2023-02-28T00:51:31;11.20;;;4.75;;
10381;SDS011;11635;53.636;10.120;2023-02-28T00:53:58;7.65;;;4.10;;
10381;SDS011;11635;53.636;10.120;2023-02-28T00:56:24;9.32;;;4.68;;
10381;SDS011;11635;53.636;10.120;2023-02-28T00:58:50;7.38;;;4.18;;
10381;SDS011;11635;53.636;10.120;2023-02-28T01:01:18;5.82;;;3.47;;
10381;SDS011;11635;53.636;10.120;2023-02-28T01:03:44;5.78;;;4.13;;
10381;SDS011;11635;53.636;10.120;2023-02-28T01:06:11;7.05;;;3.63;;
10381;SDS011;11635;53.636;10.120;2023-02-28T01:08:37;7.28;;;3.35;;
10381;SDS011;11635;53.636;10.120;2023-02-28T01:11:07;5.97;;;3.67;;
10381;SDS011;11635;53.636;10.120;2023-02-28T01:13:34;6.13;;;3.47;;
10381;SDS011;11635;53.636;10.120;2023-02-28T01:16:00;5.68;;;3.42;;
10381;SDS011;11635;53.636;10.120;2023-02-28T01:18:28;5.53;;;3.00;;
10381;SDS011;11635;53.636;10.120;2023-02-28T01:20:54;8.70;;;2.97;;
10381;SDS011;11635;53.636;10.120;2023-02-28T01:23:21;5.20;;;2.80;;
10381;SDS011;11635;53.636;10.120;2023-02-28T01:25:48;6.07;;;3.53;;
10381;SDS011;11635;53.636;10.120;2023-02-28T01:28:14;6.35;;;3.75;;
10381;SDS011;11635;53.636;10.120;2023-02-28T01:30:41;7.15;;;3.33;;
10381;SDS011;11635;53.636;10.120;2023-02-28T01:33:07;3.78;;;2.42;;
10381;SDS011;11635;53.636;10.120;2023-02-28T01:35:35;4.45;;;2.50;;
10381;SDS011;11635;53.636;10.120;2023-02-28T01:38:01;4.90;;;3.00;;
10381;SDS011;11635;53.636;10.120;2023-02-28T01:40:28;4.03;;;2.78;;
10381;SDS011;11635;53.636;10.120;2023-02-28T01:42:55;5.60;;;3.00;;
10381;SDS011;11635;53.636;10.120;2023-02-28T01:45:22;5.35;;;2.78;;
10381;SDS011;11635;53.636;10.120;2023-02-28T01:47:50;6.22;;;3.17;;
10381;SDS011;11635;53.636;10.120;2023-02-28T01:50:18;3.85;;;2.97;;
10381;SDS011;11635;53.636;10.120;2023-02-28T01:52:46;5.65;;;3.40;;
10381;SDS011;11635;53.636;10.120;2023-02-28T01:55:13;3.47;;;2.92;;
10381;SDS011;11635;53.636;10.120;2023-02-28T01:57:41;7.70;;;3.28;;
10381;SDS011;11635;53.636;10.120;2023-02-28T02:00:09;4.28;;;2.70;;
10381;SDS011;11635;53.636;10.120;2023-02-28T02:02:39;7.90;;;3.35;;
10381;SDS011;11635;53.636;10.120;2023-02-28T02:05:08;5.40;;;3.10;;
10381;SDS011;11635;53.636;10.120;2023-02-28T02:07:35;5.15;;;3.13;;
10381;SDS011;11635;53.636;10.120;2023-02-28T02:10:04;5.55;;;3.38;;
10381;SDS011;11635;53.636;10.120;2023-02-28T02:12:47;4.65;;;3.00;;
10381;SDS011;11635;53.636;10.120;2023-02-28T02:15:16;6.50;;;2.80;;
10381;SDS011;11635;53.636;10.120;2023-02-28T02:17:45;4.07;;;2.90;;
10381;SDS011;11635;53.636;10.120;2023-02-28T02:25:55;3.50;;;2.90;;
10381;SDS011;11635;53.636;10.120;2023-02-28T02:28:29;3.92;;;2.45;;
10381;SDS011;11635;53.636;10.120;2023-02-28T02:31:04;3.28;;;2.75;;
10381;SDS011;11635;53.636;10.120;2023-02-28T02:33:40;4.80;;;2.65;;
10381;SDS011;11635;53.636;10.120;2023-02-28T02:36:17;5.03;;;2.83;;
10381;SDS011;11635;53.636;10.120;2023-02-28T02:38:46;3.85;;;2.83;;
10381;SDS011;11635;53.636;10.120;2023-02-28T02:41:16;6.40;;;2.60;;
10381;SDS011;11635;53.636;10.120;2023-02-28T02:43:44;5.40;;;2.80;;
10381;SDS011;11635;53.636;10.120;2023-02-28T02:46:13;5.40;;;2.88;;
10381;SDS011;11635;53.636;10.120;2023-02-28T02:48:41;5.10;;;2.65;;
10381;SDS011;11635;53.636;10.120;2023-02-28T02:51:10;5.55;;;2.40;;
10381;SDS011;11635;53.636;10.120;2023-02-28T02:53:40;5.03;;;2.45;;
10381;SDS011;11635;53.636;10.120;2023-02-28T02:56:08;7.50;;;2.53;;
10381;SDS011;11635;53.636;10.120;2023-02-28T02:58:35;5.13;;;2.50;;
10381;SDS011;11635;53.636;10.120;2023-02-28T03:01:07;4.07;;;2.50;;
10381;SDS011;11635;53.636;10.120;2023-02-28T03:03:34;6.22;;;2.80;;
10381;SDS011;11635;53.636;10.120;2023-02-28T03:06:01;6.05;;;2.47;;
10381;SDS011;11635;53.636;10.120;2023-02-28T03:08:28;3.95;;;2.60;;
10381;SDS011;11635;53.636;10.120;2023-02-28T03:10:57;4.70;;;2.60;;
10381;SDS011;11635;53.636;10.120;2023-02-28T03:16:21;5.55;;;2.75;;
10381;SDS011;11635;53.636;10.120;2023-02-28T03:18:52;7.72;;;2.85;;
10381;SDS011;11635;53.636;10.120;2023-02-28T03:21:22;8.07;;;2.67;;
10381;SDS011;11635;53.636;10.120;2023-02-28T03:23:52;7.07;;;3.15;;
10381;SDS011;11635;53.636;10.120;2023-02-28T03:26:23;4.53;;;2.72;;
10381;SDS011;11635;53.636;10.120;2023-02-28T03:28:51;5.47;;;2.95;;
10381;SDS011;11635;53.636;10.120;2023-02-28T03:31:19;5.85;;;2.78;;
10381;SDS011;11635;53.636;10.120;2023-02-28T03:33:47;4.65;;;2.67;;
10381;SDS011;11635;53.636;10.120;2023-02-28T03:36:20;3.60;;;2.60;;
10381;SDS011;11635;53.636;10.120;2023-02-28T03:38:48;3.63;;;2.30;;
10381;SDS011;11635;53.636;10.120;2023-02-28T03:41:19;4.10;;;2.65;;
10381;SDS011;11635;53.636;10.120;2023-02-28T03:43:50;4.70;;;2.65;;
10381;SDS011;11635;53.636;10.120;2023-02-28T03:46:18;4.30;;;2.67;;
10381;SDS011;11635;53.636;10.120;2023-02-28T03:48:47;7.70;;;2.75;;
10381;SDS011;11635;53.636;10.120;2023-02-28T03:51:16;6.28;;;2.72;;
10381;SDS011;11635;53.636;10.120;2023-02-28T03:53:44;3.63;;;2.00;;
10381;SDS011;11635;53.636;10.120;2023-02-28T03:56:12;6.80;;;2.97;;
10381;SDS011;11635;53.636;10.120;2023-02-28T03:58:41;5.60;;;2.95;;
10381;SDS011;11635;53.636;10.120;2023-02-28T04:01:12;5.63;;;2.47;;
10381;SDS011;11635;53.636;10.120;2023-02-28T04:03:39;7.15;;;2.80;;
10381;SDS011;11635;53.636;10.120;2023-02-28T04:06:06;5.20;;;2.30;;
10381;SDS011;11635;53.636;10.120;2023-02-28T04:08:33;4.15;;;2.40;;
10381;SDS011;11635;53.636;10.120;2023-02-28T04:11:00;4.15;;;2.65;;
10381;SDS011;11635;53.636;10.120;2023-02-28T04:13:35;4.40;;;2.50;;
10381;SDS011;11635;53.636;10.120;2023-02-28T04:16:01;6.18;;;2.90;;
10381;SDS011;11635;53.636;10.120;2023-02-28T04:18:38;4.30;;;2.63;;
10381;SDS011;11635;53.636;10.120;2023-02-28T04:21:04;4.28;;;3.10;;
10381;SDS011;11635;53.636;10.120;2023-02-28T04:23:31;6.70;;;3.30;;
10381;SDS011;11635;53.636;10.120;2023-02-28T04:25:58;10.20;;;2.70;;
10381;SDS011;11635;53.636;10.120;2023-02-28T04:28:24;4.60;;;2.88;;
10381;SDS011;11635;53.636;10.120;2023-02-28T04:30:54;5.07;;;2.38;;
10381;SDS011;11635;53.636;10.120;2023-02-28T04:33:20;6.97;;;3.15;;
10381;SDS011;11635;53.636;10.120;2023-02-28T04:35:48;4.32;;;2.88;;
10381;SDS011;11635;53.636;10.120;2023-02-28T04:38:14;4.40;;;2.08;;
10381;SDS011;11635;53.636;10.120;2023-02-28T04:40:40;4.38;;;2.30;;
10381;SDS011;11635;53.636;10.120;2023-02-28T04:43:07;6.18;;;2.47;;
10381;SDS011;11635;53.636;10.120;2023-02-28T04:45:33;7.57;;;2.45;;
10381;SDS011;11635;53.636;10.120;2023-02-28T04:48:00;3.92;;;2.38;;
10381;SDS011;11635;53.636;10.120;2023-02-28T04:50:27;8.90;;;2.60;;
10381;SDS011;11635;53.636;10.120;2023-02-28T04:52:54;3.22;;;2.25;;
10381;SDS011;11635;53.636;10.120;2023-02-28T04:55:21;3.30;;;2.30;;
10381;SDS011;11635;53.636;10.120;2023-02-28T04:57:47;5.93;;;2.60;;
10381;SDS011;11635;53.636;10.120;2023-02-28T05:00:13;5.68;;;2.67;;
10381;SDS011;11635;53.636;10.120;2023-02-28T05:02:41;6.97;;;2.53;;
10381;SDS011;11635;53.636;10.120;2023-02-28T05:05:08;5.85;;;2.78;;
10381;SDS011;11635;53.636;10.120;2023-02-28T05:07:34;5.97;;;2.70;;
10381;SDS011;11635;53.636;10.120;2023-02-28T05:10:02;4.10;;;2.58;;
10381;SDS011;11635;53.636;10.120;2023-02-28T05:12:28;5.38;;;2.45;;
10381;SDS011;11635;53.636;10.120;2023-02-28T05:14:55;3.72;;;2.40;;
10381;SDS011;11635;53.636;10.120;2023-02-28T05:17:21;4.18;;;2.50;;
10381;SDS011;11635;53.636;10.120;2023-02-28T05:19:47;4.00;;;2.40;;
10381;SDS011;11635;53.636;10.120;2023-02-28T05:22:14;4.90;;;2.75;;
10381;SDS011;11635;53.636;10.120;2023-02-28T05:24:41;3.70;;;2.70;;
10381;SDS011;11635;53.636;10.120;2023-02-28T05:27:09;6.00;;;2.85;;
10381;SDS011;11635;53.636;10.120;2023-02-28T05:29:36;5.05;;;3.28;;
10381;SDS011;11635;53.636;10.120;2023-02-28T05:32:07;4.97;;;2.85;;
10381;SDS011;11635;53.636;10.120;2023-02-28T05:34:33;6.40;;;3.05;;
10381;SDS011;11635;53.636;10.120;2023-02-28T05:36:59;7.07;;;3.55;;
10381;SDS011;11635;53.636;10.120;2023-02-28T05:39:26;7.13;;;3.60;;
10381;SDS011;11635;53.636;10.120;2023-02-28T05:41:52;8.45;;;3.20;;
10381;SDS011;11635;53.636;10.120;2023-02-28T05:44:20;6.50;;;3.40;;
10381;SDS011;11635;53.636;10.120;2023-02-28T05:46:46;6.55;;;3.47;;
10381;SDS011;11635;53.636;10.120;2023-02-28T05:49:12;6.47;;;3.78;;
10381;SDS011;11635;53.636;10.120;2023-02-28T05:51:39;4.75;;;3.20;;
10381;SDS011;11635;53.636;10.120;2023-02-28T05:54:06;4.40;;;3.35;;
10381;SDS011;11635;53.636;10.120;2023-02-28T05:56:32;5.70;;;3.22;;
10381;SDS011;11635;53.636;10.120;2023-02-28T05:58:59;6.82;;;3.38;;
10381;SDS011;11635;53.636;10.120;2023-02-28T06:01:32;10.25;;;3.97;;
10381;SDS011;11635;53.636;10.120;2023-02-28T06:03:58;7.15;;;3.70;;
10381;SDS011;11635;53.636;10.120;2023-02-28T06:06:25;7.85;;;3.75;;
10381;SDS011;11635;53.636;10.120;2023-02-28T06:08:51;8.57;;;3.67;;
10381;SDS011;11635;53.636;10.120;2023-02-28T06:11:17;6.22;;;3.28;;
10381;SDS011;11635;53.636;10.120;2023-02-28T06:13:44;7.85;;;3.40;;
10381;SDS011;11635;53.636;10.120;2023-02-28T06:16:11;7.50;;;3.78;;
10381;SDS011;11635;53.636;10.120;2023-02-28T06:18:39;5.40;;;3.90;;
10381;SDS011;11635;53.636;10.120;2023-02-28T06:21:05;7.43;;;3.30;;
10381;SDS011;11635;53.636;10.120;2023-02-28T06:23:33;9.40;;;4.03;;
10381;SDS011;11635;53.636;10.120;2023-02-28T06:26:00;8.25;;;3.90;;
10381;SDS011;11635;53.636;10.120;2023-02-28T06:28:27;5.45;;;3.53;;
10381;SDS011;11635;53.636;10.120;2023-02-28T06:30:53;7.32;;;4.03;;
10381;SDS011;11635;53.636;10.120;2023-02-28T06:33:19;4.78;;;3.30;;
10381;SDS011;11635;53.636;10.120;2023-02-28T06:35:49;6.60;;;3.67;;
10381;SDS011;11635;53.636;10.120;2023-02-28T06:38:16;9.18;;;4.32;;
10381;SDS011;11635;53.636;10.120;2023-02-28T06:40:43;8.38;;;3.80;;
10381;SDS011;11635;53.636;10.120;2023-02-28T06:43:10;7.32;;;3.97;;
10381;SDS011;11635;53.636;10.120;2023-02-28T06:45:40;6.38;;;3.92;;
10381;SDS011;11635;53.636;10.120;2023-02-28T06:48:07;10.93;;;4.00;;
10381;SDS011;11635;53.636;10.120;2023-02-28T06:50:33;7.13;;;4.40;;
10381;SDS011;11635;53.636;10.120;2023-02-28T06:53:01;5.57;;;3.30;;
10381;SDS011;11635;53.636;10.120;2023-02-28T06:55:28;7.63;;;4.00;;
10381;SDS011;11635;53.636;10.120;2023-02-28T06:57:54;13.15;;;4.45;;
10381;SDS011;11635;53.636;10.120;2023-02-28T07:00:21;5.97;;;3.92;;
10381;SDS011;11635;53.636;10.120;2023-02-28T07:02:47;6.32;;;3.67;;
10381;SDS011;11635;53.636;10.120;2023-02-28T07:05:14;6.18;;;3.65;;
10381;SDS011;11635;53.636;10.120;2023-02-28T07:07:40;7.50;;;3.80;;
10381;SDS011;11635;53.636;10.120;2023-02-28T07:10:11;7.93;;;4.28;;
10381;SDS011;11635;53.636;10.120;2023-02-28T07:12:38;5.22;;;3.58;;
10381;SDS011;11635;53.636;10.120;2023-02-28T07:15:04;7.25;;;3.90;;
10381;SDS011;11635;53.636;10.120;2023-02-28T07:17:31;4.82;;;3.67;;
10381;SDS011;11635;53.636;10.120;2023-02-28T07:19:57;6.75;;;3.83;;
10381;SDS011;11635;53.636;10.120;2023-02-28T07:22:24;10.98;;;4.72;;
10381;SDS011;11635;53.636;10.120;2023-02-28T07:24:50;7.45;;;4.53;;
10381;SDS011;11635;53.636;10.120;2023-02-28T07:27:18;8.38;;;4.28;;
10381;SDS011;11635;53.636;10.120;2023-02-28T07:29:50;5.03;;;4.07;;
10381;SDS011;11635;53.636;10.120;2023-02-28T07:32:16;9.13;;;3.88;;
10381;SDS011;11635;53.636;10.120;2023-02-28T07:34:43;9.43;;;4.25;;
10381;SDS011;11635;53.636;10.120;2023-02-28T07:37:09;6.43;;;4.25;;
10381;SDS011;11635;53.636;10.120;2023-02-28T07:39:36;5.85;;;4.28;;
10381;SDS011;11635;53.636;10.120;2023-02-28T07:42:03;6.80;;;3.92;;
10381;SDS011;11635;53.636;10.120;2023-02-28T07:44:32;7.20;;;3.97;;
10381;SDS011;11635;53.636;10.120;2023-02-28T07:46:58;11.05;;;4.90;;
10381;SDS011;11635;53.636;10.120;2023-02-28T07:49:25;7.93;;;4.07;;
10381;SDS011;11635;53.636;10.120;2023-02-28T07:51:51;10.98;;;4.72;;
10381;SDS011;11635;53.636;10.120;2023-02-28T07:54:17;5.55;;;4.38;;
10381;SDS011;11635;53.636;10.120;2023-02-28T07:56:44;6.65;;;4.80;;
10381;SDS011;11635;53.636;10.120;2023-02-28T07:59:10;7.00;;;5.22;;
10381;SDS011;11635;53.636;10.120;2023-02-28T08:01:38;6.30;;;4.55;;
10381;SDS011;11635;53.636;10.120;2023-02-28T08:04:04;8.15;;;5.00;;
10381;SDS011;11635;53.636;10.120;2023-02-28T08:06:30;10.60;;;5.30;;
10381;SDS011;11635;53.636;10.120;2023-02-28T08:08:57;7.90;;;4.72;;
10381;SDS011;11635;53.636;10.120;2023-02-28T08:11:23;7.18;;;4.78;;
10381;SDS011;11635;53.636;10.120;2023-02-28T08:13:49;7.28;;;4.72;;
10381;SDS011;11635;53.636;10.120;2023-02-28T08:16:16;9.25;;;4.68;;
10381;SDS011;11635;53.636;10.120;2023-02-28T08:18:48;5.35;;;4.63;;
10381;SDS011;11635;53.636;10.120;2023-02-28T08:21:14;9.82;;;5.00;;
10381;SDS011;11635;53.636;10.120;2023-02-28T08:23:41;6.53;;;4.20;;
10381;SDS011;11635;53.636;10.120;2023-02-28T08:26:07;5.75;;;4.18;;
10381;SDS011;11635;53.636;10.120;2023-02-28T08:28:34;8.65;;;4.30;;
10381;SDS011;11635;53.636;10.120;2023-02-28T08:31:00;7.95;;;4.57;;
10381;SDS011;11635;53.636;10.120;2023-02-28T08:33:27;7.68;;;4.55;;
10381;SDS011;11635;53.636;10.120;2023-02-28T08:35:55;6.07;;;4.35;;
10381;SDS011;11635;53.636;10.120;2023-02-28T08:38:22;6.82;;;4.53;;
10381;SDS011;11635;53.636;10.120;2023-02-28T08:40:48;7.50;;;4.50;;
10381;SDS011;11635;53.636;10.120;2023-02-28T08:43:14;5.95;;;4.78;;
10381;SDS011;11635;53.636;10.120;2023-02-28T08:45:41;6.03;;;4.57;;
10381;SDS011;11635;53.636;10.120;2023-02-28T08:48:07;8.10;;;4.70;;
10381;SDS011;11635;53.636;10.120;2023-02-28T08:50:34;7.95;;;3.95;;
10381;SDS011;11635;53.636;10.120;2023-02-28T08:53:01;9.13;;;4.15;;
10381;SDS011;11635;53.636;10.120;2023-02-28T08:55:28;7.68;;;3.70;;
10381;SDS011;11635;53.636;10.120;2023-02-28T08:57:54;6.70;;;4.32;;
10381;SDS011;11635;53.636;10.120;2023-02-28T09:00:21;7.50;;;4.63;;
10381;SDS011;11635;53.636;10.120;2023-02-28T09:02:47;6.65;;;4.18;;
10381;SDS011;11635;53.636;10.120;2023-02-28T09:05:14;6.70;;;4.10;;
10381;SDS011;11635;53.636;10.120;2023-02-28T09:07:40;5.93;;;3.90;;
10381;SDS011;11635;53.636;10.120;2023-02-28T09:10:09;9.63;;;4.35;;
10381;SDS011;11635;53.636;10.120;2023-02-28T09:12:35;6.20;;;4.07;;
10381;SDS011;11635;53.636;10.120;2023-02-28T09:15:02;5.10;;;3.75;;
10381;SDS011;11635;53.636;10.120;2023-02-28T09:17:29;6.25;;;3.88;;
10381;SDS011;11635;53.636;10.120;2023-02-28T09:19:55;5.22;;;3.95;;
10381;SDS011;11635;53.636;10.120;2023-02-28T09:22:21;6.78;;;3.88;;
10381;SDS011;11635;53.636;10.120;2023-02-28T09:24:48;5.65;;;3.80;;
10381;SDS011;11635;53.636;10.120;2023-02-28T09:27:15;5.40;;;3.83;;
10381;SDS011;11635;53.636;10.120;2023-02-28T09:29:42;5.53;;;3.88;;
10381;SDS011;11635;53.636;10.120;2023-02-28T09:32:08;8.93;;;4.45;;
10381;SDS011;11635;53.636;10.120;2023-02-28T09:34:34;7.28;;;4.43;;
10381;SDS011;11635;53.636;10.120;2023-02-28T09:37:01;6.20;;;3.47;;
10381;SDS011;11635;53.636;10.120;2023-02-28T09:39:28;5.50;;;2.97;;
10381;SDS011;11635;53.636;10.120;2023-02-28T09:41:56;4.55;;;3.00;;
10381;SDS011;11635;53.636;10.120;2023-02-28T09:44:26;5.10;;;3.65;;
10381;SDS011;11635;53.636;10.120;2023-02-28T09:46:55;4.35;;;2.92;;
10381;SDS011;11635;53.636;10.120;2023-02-28T09:49:25;4.85;;;2.80;;
10381;SDS011;11635;53.636;10.120;2023-02-28T09:51:55;6.32;;;3.10;;
10381;SDS011;11635;53.636;10.120;2023-02-28T09:54:24;5.07;;;3.08;;
10381;SDS011;11635;53.636;10.120;2023-02-28T09:56:51;5.30;;;3.30;;
10381;SDS011;11635;53.636;10.120;2023-02-28T09:59:24;6.45;;;2.83;;
10381;SDS011;11635;53.636;10.120;2023-02-28T10:01:57;4.80;;;2.75;;
10381;SDS011;11635;53.636;10.120;2023-02-28T10:04:32;3.42;;;2.55;;
10381;SDS011;11635;53.636;10.120;2023-02-28T10:07:01;4.65;;;2.58;;
10381;SDS011;11635;53.636;10.120;2023-02-28T10:09:30;8.00;;;3.17;;
10381;SDS011;11635;53.636;10.120;2023-02-28T10:11:59;5.28;;;2.75;;
10381;SDS011;11635;53.636;10.120;2023-02-28T10:14:28;4.18;;;2.70;;
10381;SDS011;11635;53.636;10.120;2023-02-28T10:16:58;5.30;;;3.00;;
10381;SDS011;11635;53.636;10.120;2023-02-28T10:19:26;4.90;;;2.50;;
10381;SDS011;11635;53.636;10.120;2023-02-28T10:21:59;4.55;;;2.88;;
10381;SDS011;11635;53.636;10.120;2023-02-28T10:24:26;6.22;;;2.70;;
10381;SDS011;11635;53.636;10.120;2023-02-28T10:26:56;3.95;;;2.58;;
10381;SDS011;11635;53.636;10.120;2023-02-28T10:29:25;4.05;;;2.88;;
10381;SDS011;11635;53.636;10.120;2023-02-28T10:31:52;3.38;;;2.58;;
10381;SDS011;11635;53.636;10.120;2023-02-28T10:34:20;6.68;;;3.08;;
10381;SDS011;11635;53.636;10.120;2023-02-28T10:36:46;3.33;;;2.47;;
10381;SDS011;11635;53.636;10.120;2023-02-28T10:41:59;5.75;;;2.72;;
10381;SDS011;11635;53.636;10.120;2023-02-28T10:44:25;5.20;;;2.40;;
10381;SDS011;11635;53.636;10.120;2023-02-28T10:46:51;7.75;;;2.55;;
10381;SDS011;11635;53.636;10.120;2023-02-28T10:49:21;3.63;;;2.13;;
10381;SDS011;11635;53.636;10.120;2023-02-28T10:51:49;3.20;;;2.58;;
10381;SDS011;11635;53.636;10.120;2023-02-28T10:54:18;3.28;;;2.13;;
10381;SDS011;11635;53.636;10.120;2023-02-28T10:56:45;4.93;;;2.20;;
10381;SDS011;11635;53.636;10.120;2023-02-28T10:59:26;4.32;;;2.30;;
10381;SDS011;11635;53.636;10.120;2023-02-28T11:01:53;2.97;;;2.17;;
10381;SDS011;11635;53.636;10.120;2023-02-28T11:04:31;2.45;;;2.25;;
10381;SDS011;11635;53.636;10.120;2023-02-28T11:07:00;2.65;;;2.22;;
10381;SDS011;11635;53.636;10.120;2023-02-28T11:09:27;3.90;;;2.08;;
10381;SDS011;11635;53.636;10.120;2023-02-28T11:11:55;4.72;;;2.53;;
10381;SDS011;11635;53.636;10.120;2023-02-28T11:14:22;3.72;;;2.30;;
10381;SDS011;11635;53.636;10.120;2023-02-28T11:16:50;3.88;;;2.25;;
10381;SDS011;11635;53.636;10.120;2023-02-28T11:19:18;4.03;;;2.28;;
10381;SDS011;11635;53.636;10.120;2023-02-28T11:21:48;3.55;;;2.20;;
10381;SDS011;11635;53.636;10.120;2023-02-28T11:24:20;4.82;;;2.58;;
10381;SDS011;11635;53.636;10.120;2023-02-28T11:26:48;4.35;;;2.40;;
10381;SDS011;11635;53.636;10.120;2023-02-28T11:29:17;3.03;;;2.25;;
10381;SDS011;11635;53.636;10.120;2023-02-28T11:31:48;3.92;;;2.00;;
10381;SDS011;11635;53.636;10.120;2023-02-28T11:34:27;3.80;;;2.30;;
10381;SDS011;11635;53.636;10.120;2023-02-28T11:36:55;2.53;;;1.80;;
10381;SDS011;11635;53.636;10.120;2023-02-28T11:39:23;6.32;;;2.30;;
10381;SDS011;11635;53.636;10.120;2023-02-28T11:44:39;4.55;;;2.20;;
10381;SDS011;11635;53.636;10.120;2023-02-28T11:47:09;3.17;;;2.22;;
10381;SDS011;11635;53.636;10.120;2023-02-28T11:49:42;2.83;;;1.90;;
10381;SDS011;11635;53.636;10.120;2023-02-28T11:52:19;3.30;;;2.10;;
10381;SDS011;11635;53.636;10.120;2023-02-28T11:54:59;4.93;;;2.13;;
10381;SDS011;11635;53.636;10.120;2023-02-28T11:57:33;4.93;;;2.47;;
10381;SDS011;11635;53.636;10.120;2023-02-28T12:00:03;3.15;;;2.20;;
10381;SDS011;11635;53.636;10.120;2023-02-28T12:02:33;3.53;;;2.17;;
10381;SDS011;11635;53.636;10.120;2023-02-28T12:05:10;2.03;;;1.77;;
10381;SDS011;11635;53.636;10.120;2023-02-28T12:07:42;3.28;;;1.80;;
10381;SDS011;11635;53.636;10.120;2023-02-28T12:10:15;2.42;;;2.00;;
10381;SDS011;11635;53.636;10.120;2023-02-28T12:12:46;3.45;;;1.88;;
10381;SDS011;11635;53.636;10.120;2023-02-28T12:15:17;3.45;;;2.30;;
10381;SDS011;11635;53.636;10.120;2023-02-28T12:17:49;2.67;;;1.90;;
10381;SDS011;11635;53.636;10.120;2023-02-28T12:22:47;2.97;;;2.15;;
10381;SDS011;11635;53.636;10.120;2023-02-28T12:25:24;3.60;;;2.13;;
10381;SDS011;11635;53.636;10.120;2023-02-28T12:27:54;3.70;;;2.08;;
10381;SDS011;11635;53.636;10.120;2023-02-28T12:30:21;4.38;;;1.90;;
10381;SDS011;11635;53.636;10.120;2023-02-28T12:32:48;3.70;;;2.25;;
10381;SDS011;11635;53.636;10.120;2023-02-28T12:35:16;3.35;;;1.90;;
10381;SDS011;11635;53.636;10.120;2023-02-28T12:37:45;2.47;;;1.63;;
10381;SDS011;11635;53.636;10.120;2023-02-28T12:40:15;2.17;;;1.98;;
10381;SDS011;11635;53.636;10.120;2023-02-28T12:42:44;1.75;;;1.63;;
10381;SDS011;11635;53.636;10.120;2023-02-28T12:45:12;2.55;;;1.88;;
10381;SDS011;11635;53.636;10.120;2023-02-28T12:47:42;2.20;;;1.73;;
10381;SDS011;11635;53.636;10.120;2023-02-28T12:50:10;2.05;;;1.70;;
10381;SDS011;11635;53.636;10.120;2023-02-28T12:52:40;4.00;;;2.00;;
10381;SDS011;11635;53.636;10.120;2023-02-28T12:55:08;1.75;;;1.65;;
10381;SDS011;11635;53.636;10.120;2023-02-28T12:57:40;2.90;;;1.70;;
10381;SDS011;11635;53.636;10.120;2023-02-28T13:00:10;2.95;;;2.08;;
10381;SDS011;11635;53.636;10.120;2023-02-28T13:02:53;3.53;;;1.85;;
10381;SDS011;11635;53.636;10.120;2023-02-28T13:05:31;2.50;;;1.70;;
10381;SDS011;11635;53.636;10.120;2023-02-28T13:08:08;5.80;;;2.03;;
10381;SDS011;11635;53.636;10.120;2023-02-28T13:10:39;2.50;;;1.70;;
10381;SDS011;11635;53.636;10.120;2023-02-28T13:13:11;2.83;;;1.85;;
10381;SDS011;11635;53.636;10.120;2023-02-28T13:15:39;2.00;;;1.70;;
10381;SDS011;11635;53.636;10.120;2023-02-28T13:18:20;3.13;;;1.80;;
10381;SDS011;11635;53.636;10.120;2023-02-28T13:20:51;3.97;;;2.00;;
10381;SDS011;11635;53.636;10.120;2023-02-28T13:25:59;2.25;;;1.75;;
10381;SDS011;11635;53.636;10.120;2023-02-28T13:31:14;3.67;;;2.10;;
10381;SDS011;11635;53.636;10.120;2023-02-28T13:36:25;2.95;;;1.92;;
10381;SDS011;11635;53.636;10.120;2023-02-28T13:38:54;3.25;;;2.03;;
10381;SDS011;11635;53.636;10.120;2023-02-28T13:41:40;4.45;;;1.88;;
10381;SDS011;11635;53.636;10.120;2023-02-28T13:44:07;3.88;;;2.05;;
10381;SDS011;11635;53.636;10.120;2023-02-28T13:46:36;4.15;;;2.00;;
10381;SDS011;11635;53.636;10.120;2023-02-28T13:49:18;4.18;;;2.15;;
10381;SDS011;11635;53.636;10.120;2023-02-28T13:51:45;2.70;;;1.60;;
10381;SDS011;11635;53.636;10.120;2023-02-28T13:54:17;3.40;;;2.13;;
10381;SDS011;11635;53.636;10.120;2023-02-28T13:56:47;1.63;;;1.48;;
10381;SDS011;11635;53.636;10.120;2023-02-28T13:59:19;2.03;;;1.73;;
10381;SDS011;11635;53.636;10.120;2023-02-28T14:01:52;3.28;;;2.03;;
10381;SDS011;11635;53.636;10.120;2023-02-28T14:04:34;1.98;;;1.70;;
10381;SDS011;11635;53.636;10.120;2023-02-28T14:07:05;3.92;;;1.85;;
10381;SDS011;11635;53.636;10.120;2023-02-28T14:09:32;4.82;;;2.00;;
10381;SDS011;11635;53.636;10.120;2023-02-28T14:14:54;2.67;;;1.80;;
10381;SDS011;11635;53.636;10.120;2023-02-28T14:17:23;2.25;;;1.80;;
10381;SDS011;11635;53.636;10.120;2023-02-28T14:19:50;2.65;;;1.70;;
10381;SDS011;11635;53.636;10.120;2023-02-28T14:22:21;4.35;;;2.20;;
10381;SDS011;11635;53.636;10.120;2023-02-28T14:24:59;2.67;;;2.00;;
10381;SDS011;11635;53.636;10.120;2023-02-28T14:27:42;3.08;;;2.53;;
10381;SDS011;11635;53.636;10.120;2023-02-28T14:30:14;2.88;;;1.95;;
10381;SDS011;11635;53.636;10.120;2023-02-28T14:32:43;3.60;;;2.20;;
10381;SDS011;11635;53.636;10.120;2023-02-28T14:35:13;3.90;;;2.13;;
10381;SDS011;11635;53.636;10.120;2023-02-28T14:37:42;2.60;;;1.65;;
10381;SDS011;11635;53.636;10.120;2023-02-28T14:40:14;2.28;;;1.95;;
10381;SDS011;11635;53.636;10.120;2023-02-28T14:42:45;2.00;;;1.48;;
10381;SDS011;11635;53.636;10.120;2023-02-28T14:45:17;3.28;;;2.08;;
10381;SDS011;11635;53.636;10.120;2023-02-28T14:47:44;1.92;;;1.70;;
10381;SDS011;11635;53.636;10.120;2023-02-28T14:50:17;3.35;;;1.90;;
10381;SDS011;11635;53.636;10.120;2023-02-28T14:52:44;2.70;;;1.80;;
10381;SDS011;11635;53.636;10.120;2023-02-28T14:55:12;3.08;;;2.00;;
10381;SDS011;11635;53.636;10.120;2023-02-28T14:57:41;2.55;;;1.70;;
10381;SDS011;11635;53.636;10.120;2023-02-28T15:00:11;2.63;;;1.60;;
10381;SDS011;11635;53.636;10.120;2023-02-28T15:02:39;3.08;;;1.98;;
10381;SDS011;11635;53.636;10.120;2023-02-28T15:05:21;3.08;;;2.08;;
10381;SDS011;11635;53.636;10.120;2023-02-28T15:07:48;3.00;;;1.77;;